Terminal Aerodrome Forecast
Issued by NWS

Home | Current Version | Previous Version | Text Only | Print | Product List | Glossary On
Versions: 1 2 3 4 5 6 7 8 9 10 11 12 13 14 15 16 17 18 19 20 21 22 23 24 25 26 27 28 29 30 31 32 33 34 35 36 37 38 39 40 41 42
304
FTUS43 KDTX 111524 AAB
TAFYIP
TAF AMD
KYIP 111524Z 1115/1212 15009KT 1SM -SN OVC020
      TEMPO 1115/1117 3/4SM -SN OVC020
     FM111700 17007KT 6SM -SN OVC025
     FM111900 17006KT 4SM -SN OVC018
      TEMPO 1119/1122 2SM -SN SCT009 OVC015
     FM120000 VRB04KT 1SM -SN SCT006 OVC012
     FM120600 28015G25KT 3SM -SN OVC025
     FM120900 29018G30KT P6SM BKN028 OVC040=

USA.gov is the U.S. government's official web portal to all federal, state and local government web resources and services.